CheckWX is a tool to help pilots better visualize weather data.  It is not intended as a substitute for an official pre-flight weather briefing.

07:53:34 UTC

TJPS TAF
Mercedita Airport
Ponce, Puerto Rico, USA
TJPS 200535Z 2006/2106 VRB04KT P6SM SCT030 BKN050 FM200930 08009KT P6SM VCSH FEW030 SCT050 FM201400 14020KT P6SM SCT030 BKN060 FM202330 10012KT P6SM FEW030

Jun-20@
06:00 UTC

Jun-20 @ 06:00 UTC

Jun-20@
09:30 UTC

Jun-20 @ 09:30 UTC

TJPS 200535Z 2006/2106 VRB04KT P6SM SCT030 BKN050
Wind
  • Variable at 4 KTS
Cloud Levels
  • Scattered at 3,000' AGL
  • Broken at 5,000' AGL

Jun-20@
09:30 UTC

Jun-20 @ 09:30 UTC

Jun-20@
14:00 UTC

Jun-20 @ 14:00 UTC

FM200930 08009KT P6SM VCSH FEW030 SCT050

From

From Standard forecast or significant change

Wind
  • 080° at 9 KTS
Cloud Levels
  • Few at 3,000' AGL
  • Scattered at 5,000' AGL

Jun-20@
14:00 UTC

Jun-20 @ 14:00 UTC

Jun-20@
23:30 UTC

Jun-20 @ 23:30 UTC

FM201400 14020KT P6SM SCT030 BKN060

From

From Standard forecast or significant change

Wind
  • 140° at 20 KTS
Cloud Levels
  • Scattered at 3,000' AGL
  • Broken at 6,000' AGL

Jun-20@
23:30 UTC

Jun-20 @ 23:30 UTC

Jun-21@
06:00 UTC

Jun-21 @ 06:00 UTC

FM202330 10012KT P6SM FEW030

From

From Standard forecast or significant change

Wind
  • 100° at 12 KTS
Cloud Levels
  • Few at 3,000' AGL